sensor_id;sensor_type;location;lat;lon;timestamp;P1;durP1;ratioP1;P2;durP2;ratioP2
6392;SDS011;3229;42.674;23.282;2023-04-15T00:00:49;6.80;;;5.43;;
6392;SDS011;3229;42.674;23.282;2023-04-15T00:03:17;13.00;;;5.37;;
6392;SDS011;3229;42.674;23.282;2023-04-15T00:05:44;9.73;;;5.70;;
6392;SDS011;3229;42.674;23.282;2023-04-15T00:08:11;8.40;;;6.37;;
6392;SDS011;3229;42.674;23.282;2023-04-15T00:10:39;8.17;;;6.57;;
6392;SDS011;3229;42.674;23.282;2023-04-15T00:13:08;10.73;;;5.57;;
6392;SDS011;3229;42.674;23.282;2023-04-15T00:15:35;9.80;;;6.07;;
6392;SDS011;3229;42.674;23.282;2023-04-15T00:18:02;9.57;;;5.90;;
6392;SDS011;3229;42.674;23.282;2023-04-15T00:20:30;7.37;;;5.40;;
6392;SDS011;3229;42.674;23.282;2023-04-15T00:22:57;9.83;;;6.27;;
6392;SDS011;3229;42.674;23.282;2023-04-15T00:25:24;10.27;;;6.27;;
6392;SDS011;3229;42.674;23.282;2023-04-15T00:27:51;7.07;;;4.97;;
6392;SDS011;3229;42.674;23.282;2023-04-15T00:30:18;9.10;;;5.67;;
6392;SDS011;3229;42.674;23.282;2023-04-15T00:32:45;10.60;;;5.97;;
6392;SDS011;3229;42.674;23.282;2023-04-15T00:35:13;8.60;;;5.93;;
6392;SDS011;3229;42.674;23.282;2023-04-15T00:37:41;8.20;;;5.17;;
6392;SDS011;3229;42.674;23.282;2023-04-15T00:40:09;6.73;;;5.27;;
6392;SDS011;3229;42.674;23.282;2023-04-15T00:42:38;8.17;;;5.70;;
6392;SDS011;3229;42.674;23.282;2023-04-15T00:45:05;8.23;;;4.90;;
6392;SDS011;3229;42.674;23.282;2023-04-15T00:47:32;6.57;;;5.00;;
6392;SDS011;3229;42.674;23.282;2023-04-15T00:50:01;7.47;;;5.30;;
6392;SDS011;3229;42.674;23.282;2023-04-15T00:52:29;8.47;;;5.03;;
6392;SDS011;3229;42.674;23.282;2023-04-15T00:54:57;10.10;;;5.97;;
6392;SDS011;3229;42.674;23.282;2023-04-15T00:57:24;7.33;;;4.80;;
6392;SDS011;3229;42.674;23.282;2023-04-15T00:59:53;9.30;;;4.80;;
6392;SDS011;3229;42.674;23.282;2023-04-15T01:02:21;7.03;;;5.23;;
6392;SDS011;3229;42.674;23.282;2023-04-15T01:04:48;7.27;;;4.63;;
6392;SDS011;3229;42.674;23.282;2023-04-15T01:07:16;8.53;;;4.43;;
6392;SDS011;3229;42.674;23.282;2023-04-15T01:09:42;6.17;;;4.90;;
6392;SDS011;3229;42.674;23.282;2023-04-15T01:12:11;6.03;;;4.60;;
6392;SDS011;3229;42.674;23.282;2023-04-15T01:14:40;7.20;;;4.67;;
6392;SDS011;3229;42.674;23.282;2023-04-15T01:17:07;6.60;;;4.37;;
6392;SDS011;3229;42.674;23.282;2023-04-15T01:19:35;8.60;;;4.97;;
6392;SDS011;3229;42.674;23.282;2023-04-15T01:22:02;8.63;;;5.17;;
6392;SDS011;3229;42.674;23.282;2023-04-15T01:24:29;7.07;;;4.80;;
6392;SDS011;3229;42.674;23.282;2023-04-15T01:26:58;7.33;;;4.40;;
6392;SDS011;3229;42.674;23.282;2023-04-15T01:29:25;7.50;;;5.20;;
6392;SDS011;3229;42.674;23.282;2023-04-15T01:31:54;6.07;;;4.33;;
6392;SDS011;3229;42.674;23.282;2023-04-15T01:34:21;7.67;;;4.63;;
6392;SDS011;3229;42.674;23.282;2023-04-15T01:36:48;8.67;;;4.87;;
6392;SDS011;3229;42.674;23.282;2023-04-15T01:39:15;6.80;;;4.07;;
6392;SDS011;3229;42.674;23.282;2023-04-15T01:41:42;7.37;;;4.67;;
6392;SDS011;3229;42.674;23.282;2023-04-15T01:44:10;7.77;;;5.10;;
6392;SDS011;3229;42.674;23.282;2023-04-15T01:46:37;6.90;;;4.83;;
6392;SDS011;3229;42.674;23.282;2023-04-15T01:49:03;4.77;;;3.93;;
6392;SDS011;3229;42.674;23.282;2023-04-15T01:51:30;6.07;;;4.40;;
6392;SDS011;3229;42.674;23.282;2023-04-15T01:53:57;10.13;;;4.40;;
6392;SDS011;3229;42.674;23.282;2023-04-15T01:56:24;6.53;;;4.20;;
6392;SDS011;3229;42.674;23.282;2023-04-15T01:58:51;6.40;;;4.40;;
6392;SDS011;3229;42.674;23.282;2023-04-15T02:01:19;6.63;;;4.30;;
6392;SDS011;3229;42.674;23.282;2023-04-15T02:03:46;6.30;;;4.03;;
6392;SDS011;3229;42.674;23.282;2023-04-15T02:06:13;6.20;;;4.10;;
6392;SDS011;3229;42.674;23.282;2023-04-15T02:08:40;5.47;;;3.80;;
6392;SDS011;3229;42.674;23.282;2023-04-15T02:11:07;6.00;;;3.60;;
6392;SDS011;3229;42.674;23.282;2023-04-15T02:13:34;6.43;;;3.60;;
6392;SDS011;3229;42.674;23.282;2023-04-15T02:16:01;7.63;;;4.10;;
6392;SDS011;3229;42.674;23.282;2023-04-15T02:18:29;6.77;;;4.30;;
6392;SDS011;3229;42.674;23.282;2023-04-15T02:20:56;5.27;;;4.30;;
6392;SDS011;3229;42.674;23.282;2023-04-15T02:23:23;5.53;;;4.23;;
6392;SDS011;3229;42.674;23.282;2023-04-15T02:25:50;6.60;;;4.10;;
6392;SDS011;3229;42.674;23.282;2023-04-15T02:28:17;5.97;;;4.27;;
6392;SDS011;3229;42.674;23.282;2023-04-15T02:30:46;5.33;;;3.87;;
6392;SDS011;3229;42.674;23.282;2023-04-15T02:33:13;4.30;;;3.90;;
6392;SDS011;3229;42.674;23.282;2023-04-15T02:35:41;5.37;;;3.90;;
6392;SDS011;3229;42.674;23.282;2023-04-15T02:38:09;4.83;;;4.17;;
6392;SDS011;3229;42.674;23.282;2023-04-15T02:40:36;4.43;;;3.97;;
6392;SDS011;3229;42.674;23.282;2023-04-15T02:43:03;5.03;;;3.97;;
6392;SDS011;3229;42.674;23.282;2023-04-15T02:45:31;6.27;;;3.97;;
6392;SDS011;3229;42.674;23.282;2023-04-15T02:47:58;5.87;;;3.73;;
6392;SDS011;3229;42.674;23.282;2023-04-15T02:50:27;5.13;;;3.67;;
6392;SDS011;3229;42.674;23.282;2023-04-15T02:52:57;4.03;;;3.20;;
6392;SDS011;3229;42.674;23.282;2023-04-15T02:55:25;4.90;;;3.47;;
6392;SDS011;3229;42.674;23.282;2023-04-15T02:57:52;6.07;;;3.63;;
6392;SDS011;3229;42.674;23.282;2023-04-15T03:00:18;8.10;;;3.90;;
6392;SDS011;3229;42.674;23.282;2023-04-15T03:02:45;6.50;;;3.73;;
6392;SDS011;3229;42.674;23.282;2023-04-15T03:05:16;5.10;;;3.57;;
6392;SDS011;3229;42.674;23.282;2023-04-15T03:07:42;5.77;;;3.77;;
6392;SDS011;3229;42.674;23.282;2023-04-15T03:10:11;5.80;;;3.90;;
6392;SDS011;3229;42.674;23.282;2023-04-15T03:12:38;6.73;;;4.07;;
6392;SDS011;3229;42.674;23.282;2023-04-15T03:15:05;4.50;;;3.60;;
6392;SDS011;3229;42.674;23.282;2023-04-15T03:17:33;7.17;;;4.47;;
6392;SDS011;3229;42.674;23.282;2023-04-15T03:20:00;8.00;;;4.40;;
6392;SDS011;3229;42.674;23.282;2023-04-15T03:22:27;6.20;;;4.43;;
6392;SDS011;3229;42.674;23.282;2023-04-15T03:24:53;7.43;;;4.70;;
6392;SDS011;3229;42.674;23.282;2023-04-15T03:27:22;7.13;;;4.63;;
6392;SDS011;3229;42.674;23.282;2023-04-15T03:29:49;8.33;;;4.60;;
6392;SDS011;3229;42.674;23.282;2023-04-15T03:32:16;7.57;;;5.37;;
6392;SDS011;3229;42.674;23.282;2023-04-15T03:34:43;5.63;;;4.50;;
6392;SDS011;3229;42.674;23.282;2023-04-15T03:37:09;6.00;;;4.67;;
6392;SDS011;3229;42.674;23.282;2023-04-15T03:39:36;6.43;;;4.77;;
6392;SDS011;3229;42.674;23.282;2023-04-15T03:42:03;5.07;;;4.57;;
6392;SDS011;3229;42.674;23.282;2023-04-15T03:44:31;7.07;;;4.90;;
6392;SDS011;3229;42.674;23.282;2023-04-15T03:46:58;7.33;;;5.17;;
6392;SDS011;3229;42.674;23.282;2023-04-15T03:49:25;7.20;;;5.10;;
6392;SDS011;3229;42.674;23.282;2023-04-15T03:51:51;6.27;;;4.80;;
6392;SDS011;3229;42.674;23.282;2023-04-15T03:54:18;5.37;;;4.63;;
6392;SDS011;3229;42.674;23.282;2023-04-15T03:56:45;5.77;;;4.77;;
6392;SDS011;3229;42.674;23.282;2023-04-15T03:59:12;6.77;;;4.63;;
6392;SDS011;3229;42.674;23.282;2023-04-15T04:01:40;9.23;;;4.93;;
6392;SDS011;3229;42.674;23.282;2023-04-15T04:04:07;8.43;;;5.23;;
6392;SDS011;3229;42.674;23.282;2023-04-15T04:06:33;8.17;;;5.87;;
6392;SDS011;3229;42.674;23.282;2023-04-15T04:09:00;7.63;;;4.87;;
6392;SDS011;3229;42.674;23.282;2023-04-15T04:11:27;6.73;;;5.27;;
6392;SDS011;3229;42.674;23.282;2023-04-15T04:13:54;9.13;;;5.57;;
6392;SDS011;3229;42.674;23.282;2023-04-15T04:16:21;10.00;;;5.27;;
6392;SDS011;3229;42.674;23.282;2023-04-15T04:18:49;8.70;;;5.37;;
6392;SDS011;3229;42.674;23.282;2023-04-15T04:21:16;7.30;;;5.17;;
6392;SDS011;3229;42.674;23.282;2023-04-15T04:23:43;7.53;;;5.43;;
6392;SDS011;3229;42.674;23.282;2023-04-15T04:26:09;7.20;;;4.93;;
6392;SDS011;3229;42.674;23.282;2023-04-15T04:28:36;5.90;;;5.13;;
6392;SDS011;3229;42.674;23.282;2023-04-15T04:31:04;9.13;;;5.33;;
6392;SDS011;3229;42.674;23.282;2023-04-15T04:33:31;7.43;;;5.00;;
6392;SDS011;3229;42.674;23.282;2023-04-15T04:36:00;8.53;;;5.50;;
6392;SDS011;3229;42.674;23.282;2023-04-15T04:38:26;5.53;;;4.90;;
6392;SDS011;3229;42.674;23.282;2023-04-15T04:40:53;5.83;;;4.70;;
6392;SDS011;3229;42.674;23.282;2023-04-15T04:43:20;7.17;;;4.67;;
6392;SDS011;3229;42.674;23.282;2023-04-15T04:45:47;6.47;;;5.07;;
6392;SDS011;3229;42.674;23.282;2023-04-15T04:48:14;8.00;;;4.73;;
6392;SDS011;3229;42.674;23.282;2023-04-15T04:50:41;7.07;;;4.60;;
6392;SDS011;3229;42.674;23.282;2023-04-15T04:53:10;6.03;;;5.10;;
6392;SDS011;3229;42.674;23.282;2023-04-15T04:55:37;7.47;;;5.17;;
6392;SDS011;3229;42.674;23.282;2023-04-15T04:58:03;5.37;;;4.37;;
6392;SDS011;3229;42.674;23.282;2023-04-15T05:00:31;4.93;;;4.40;;
6392;SDS011;3229;42.674;23.282;2023-04-15T05:02:57;7.37;;;5.13;;
6392;SDS011;3229;42.674;23.282;2023-04-15T05:05:24;7.17;;;5.00;;
6392;SDS011;3229;42.674;23.282;2023-04-15T05:07:51;8.40;;;5.80;;
6392;SDS011;3229;42.674;23.282;2023-04-15T05:10:19;9.30;;;6.13;;
6392;SDS011;3229;42.674;23.282;2023-04-15T05:12:46;7.00;;;5.63;;
6392;SDS011;3229;42.674;23.282;2023-04-15T05:15:13;7.47;;;5.50;;
6392;SDS011;3229;42.674;23.282;2023-04-15T05:17:40;8.50;;;5.30;;
6392;SDS011;3229;42.674;23.282;2023-04-15T05:20:07;6.77;;;5.30;;
6392;SDS011;3229;42.674;23.282;2023-04-15T05:22:34;5.33;;;4.60;;
6392;SDS011;3229;42.674;23.282;2023-04-15T05:25:02;6.13;;;5.37;;
6392;SDS011;3229;42.674;23.282;2023-04-15T05:27:31;6.80;;;5.00;;
6392;SDS011;3229;42.674;23.282;2023-04-15T05:29:58;4.90;;;4.13;;
6392;SDS011;3229;42.674;23.282;2023-04-15T05:32:25;6.03;;;4.30;;
6392;SDS011;3229;42.674;23.282;2023-04-15T05:34:52;5.68;;;4.30;;
6392;SDS011;3229;42.674;23.282;2023-04-15T05:37:18;5.35;;;4.20;;
6392;SDS011;3229;42.674;23.282;2023-04-15T05:39:46;5.35;;;3.83;;
6392;SDS011;3229;42.674;23.282;2023-04-15T05:42:13;5.45;;;3.90;;
6392;SDS011;3229;42.674;23.282;2023-04-15T05:44:44;4.28;;;3.63;;
6392;SDS011;3229;42.674;23.282;2023-04-15T05:47:11;4.70;;;4.03;;
6392;SDS011;3229;42.674;23.282;2023-04-15T05:49:37;3.97;;;3.53;;
6392;SDS011;3229;42.674;23.282;2023-04-15T05:52:04;4.32;;;3.58;;
6392;SDS011;3229;42.674;23.282;2023-04-15T05:54:31;6.68;;;3.58;;
6392;SDS011;3229;42.674;23.282;2023-04-15T05:56:58;3.65;;;3.35;;
6392;SDS011;3229;42.674;23.282;2023-04-15T05:59:25;5.18;;;3.58;;
6392;SDS011;3229;42.674;23.282;2023-04-15T06:01:53;7.25;;;3.58;;
6392;SDS011;3229;42.674;23.282;2023-04-15T06:04:21;4.85;;;3.10;;
6392;SDS011;3229;42.674;23.282;2023-04-15T06:06:48;6.35;;;3.67;;
6392;SDS011;3229;42.674;23.282;2023-04-15T06:09:14;3.85;;;3.33;;
6392;SDS011;3229;42.674;23.282;2023-04-15T06:11:41;4.40;;;3.25;;
6392;SDS011;3229;42.674;23.282;2023-04-15T06:14:08;3.28;;;2.97;;
6392;SDS011;3229;42.674;23.282;2023-04-15T06:16:35;4.38;;;3.33;;
6392;SDS011;3229;42.674;23.282;2023-04-15T06:19:03;4.45;;;2.88;;
6392;SDS011;3229;42.674;23.282;2023-04-15T06:21:30;5.93;;;3.15;;
6392;SDS011;3229;42.674;23.282;2023-04-15T06:23:57;3.17;;;2.83;;
6392;SDS011;3229;42.674;23.282;2023-04-15T06:26:25;3.50;;;2.80;;
6392;SDS011;3229;42.674;23.282;2023-04-15T06:28:52;3.33;;;2.97;;
6392;SDS011;3229;42.674;23.282;2023-04-15T06:31:19;3.30;;;2.85;;
6392;SDS011;3229;42.674;23.282;2023-04-15T06:33:45;5.45;;;3.15;;
6392;SDS011;3229;42.674;23.282;2023-04-15T06:36:14;5.53;;;3.15;;
6392;SDS011;3229;42.674;23.282;2023-04-15T06:38:40;3.00;;;2.70;;
6392;SDS011;3229;42.674;23.282;2023-04-15T06:41:07;6.00;;;2.80;;
6392;SDS011;3229;42.674;23.282;2023-04-15T06:43:34;2.78;;;2.55;;
6392;SDS011;3229;42.674;23.282;2023-04-15T06:46:01;3.88;;;2.72;;
6392;SDS011;3229;42.674;23.282;2023-04-15T06:48:28;3.53;;;3.13;;
6392;SDS011;3229;42.674;23.282;2023-04-15T06:50:55;4.88;;;2.83;;
6392;SDS011;3229;42.674;23.282;2023-04-15T06:53:23;3.80;;;2.65;;
6392;SDS011;3229;42.674;23.282;2023-04-15T06:55:50;3.15;;;2.83;;
6392;SDS011;3229;42.674;23.282;2023-04-15T06:58:17;3.33;;;2.80;;
6392;SDS011;3229;42.674;23.282;2023-04-15T07:00:44;4.70;;;3.17;;
6392;SDS011;3229;42.674;23.282;2023-04-15T07:03:11;3.15;;;2.40;;
6392;SDS011;3229;42.674;23.282;2023-04-15T07:05:39;5.57;;;2.95;;
6392;SDS011;3229;42.674;23.282;2023-04-15T07:08:06;5.75;;;2.75;;
6392;SDS011;3229;42.674;23.282;2023-04-15T07:10:34;5.00;;;2.88;;
6392;SDS011;3229;42.674;23.282;2023-04-15T07:13:02;4.85;;;2.92;;
6392;SDS011;3229;42.674;23.282;2023-04-15T07:15:29;4.50;;;3.25;;
6392;SDS011;3229;42.674;23.282;2023-04-15T07:17:56;5.10;;;3.13;;
6392;SDS011;3229;42.674;23.282;2023-04-15T07:20:23;3.95;;;2.60;;
6392;SDS011;3229;42.674;23.282;2023-04-15T07:22:50;4.82;;;3.15;;
6392;SDS011;3229;42.674;23.282;2023-04-15T07:25:17;4.47;;;3.15;;
6392;SDS011;3229;42.674;23.282;2023-04-15T07:27:45;5.97;;;3.00;;
6392;SDS011;3229;42.674;23.282;2023-04-15T07:30:12;5.13;;;2.70;;
6392;SDS011;3229;42.674;23.282;2023-04-15T07:32:39;5.10;;;3.00;;
6392;SDS011;3229;42.674;23.282;2023-04-15T07:35:07;4.97;;;2.92;;
6392;SDS011;3229;42.674;23.282;2023-04-15T07:37:34;4.00;;;2.75;;
6392;SDS011;3229;42.674;23.282;2023-04-15T07:40:01;4.60;;;2.50;;
6392;SDS011;3229;42.674;23.282;2023-04-15T07:42:31;4.10;;;3.03;;
6392;SDS011;3229;42.674;23.282;2023-04-15T07:44:59;3.70;;;2.70;;
6392;SDS011;3229;42.674;23.282;2023-04-15T07:47:26;3.53;;;2.80;;
6392;SDS011;3229;42.674;23.282;2023-04-15T07:49:53;7.63;;;3.13;;
6392;SDS011;3229;42.674;23.282;2023-04-15T07:52:19;5.00;;;2.75;;
6392;SDS011;3229;42.674;23.282;2023-04-15T07:54:46;4.30;;;2.72;;
6392;SDS011;3229;42.674;23.282;2023-04-15T07:57:13;3.30;;;2.70;;
6392;SDS011;3229;42.674;23.282;2023-04-15T07:59:41;3.67;;;2.50;;
6392;SDS011;3229;42.674;23.282;2023-04-15T08:02:09;2.63;;;2.42;;
6392;SDS011;3229;42.674;23.282;2023-04-15T08:04:36;3.97;;;2.35;;
6392;SDS011;3229;42.674;23.282;2023-04-15T08:07:03;4.22;;;2.45;;
6392;SDS011;3229;42.674;23.282;2023-04-15T08:09:30;3.50;;;2.60;;
6392;SDS011;3229;42.674;23.282;2023-04-15T08:11:56;2.97;;;2.28;;
6392;SDS011;3229;42.674;23.282;2023-04-15T08:14:23;3.60;;;2.67;;
6392;SDS011;3229;42.674;23.282;2023-04-15T08:16:50;4.00;;;2.30;;
6392;SDS011;3229;42.674;23.282;2023-04-15T08:19:18;4.80;;;2.40;;
6392;SDS011;3229;42.674;23.282;2023-04-15T08:21:45;4.43;;;2.47;;
6392;SDS011;3229;42.674;23.282;2023-04-15T08:24:12;3.22;;;2.20;;
6392;SDS011;3229;42.674;23.282;2023-04-15T08:26:39;2.28;;;2.08;;
6392;SDS011;3229;42.674;23.282;2023-04-15T08:29:06;3.75;;;1.98;;
6392;SDS011;3229;42.674;23.282;2023-04-15T08:31:33;1.75;;;1.65;;
6392;SDS011;3229;42.674;23.282;2023-04-15T08:34:00;2.38;;;2.17;;
6392;SDS011;3229;42.674;23.282;2023-04-15T08:36:28;2.92;;;2.03;;
6392;SDS011;3229;42.674;23.282;2023-04-15T08:38:56;2.05;;;1.80;;
6392;SDS011;3229;42.674;23.282;2023-04-15T08:41:24;2.20;;;2.00;;
6392;SDS011;3229;42.674;23.282;2023-04-15T08:43:52;3.72;;;2.00;;
6392;SDS011;3229;42.674;23.282;2023-04-15T08:46:22;3.17;;;2.20;;
6392;SDS011;3229;42.674;23.282;2023-04-15T08:48:49;2.42;;;1.60;;
6392;SDS011;3229;42.674;23.282;2023-04-15T08:51:16;5.03;;;1.70;;
6392;SDS011;3229;42.674;23.282;2023-04-15T08:53:44;5.25;;;2.00;;
6392;SDS011;3229;42.674;23.282;2023-04-15T08:56:12;2.22;;;2.03;;
6392;SDS011;3229;42.674;23.282;2023-04-15T08:58:40;2.67;;;1.80;;
6392;SDS011;3229;42.674;23.282;2023-04-15T09:01:07;2.17;;;2.00;;
6392;SDS011;3229;42.674;23.282;2023-04-15T09:03:34;2.08;;;1.70;;
6392;SDS011;3229;42.674;23.282;2023-04-15T09:06:03;3.60;;;2.03;;
6392;SDS011;3229;42.674;23.282;2023-04-15T09:08:30;2.78;;;2.03;;
6392;SDS011;3229;42.674;23.282;2023-04-15T09:10:58;3.08;;;1.50;;
6392;SDS011;3229;42.674;23.282;2023-04-15T09:13:25;3.00;;;1.77;;
6392;SDS011;3229;42.674;23.282;2023-04-15T09:15:52;1.88;;;1.67;;
6392;SDS011;3229;42.674;23.282;2023-04-15T09:18:29;2.42;;;1.80;;
6392;SDS011;3229;42.674;23.282;2023-04-15T09:21:02;1.63;;;1.52;;
6392;SDS011;3229;42.674;23.282;2023-04-15T09:23:31;2.65;;;1.75;;
6392;SDS011;3229;42.674;23.282;2023-04-15T09:26:00;2.92;;;1.50;;
6392;SDS011;3229;42.674;23.282;2023-04-15T09:28:27;2.25;;;1.60;;
6392;SDS011;3229;42.674;23.282;2023-04-15T09:30:54;2.60;;;1.35;;
6392;SDS011;3229;42.674;23.282;2023-04-15T09:33:22;2.15;;;1.40;;
6392;SDS011;3229;42.674;23.282;2023-04-15T09:35:57;2.58;;;1.50;;
6392;SDS011;3229;42.674;23.282;2023-04-15T09:38:25;1.20;;;1.10;;
6392;SDS011;3229;42.674;23.282;2023-04-15T09:40:52;1.50;;;1.40;;
6392;SDS011;3229;42.674;23.282;2023-04-15T09:43:20;2.30;;;1.65;;
6392;SDS011;3229;42.674;23.282;2023-04-15T09:45:47;1.50;;;1.40;;
6392;SDS011;3229;42.674;23.282;2023-04-15T09:48:16;1.55;;;1.30;;
6392;SDS011;3229;42.674;23.282;2023-04-15T09:50:45;1.38;;;1.27;;
6392;SDS011;3229;42.674;23.282;2023-04-15T09:53:17;3.92;;;1.80;;
6392;SDS011;3229;42.674;23.282;2023-04-15T09:55:45;1.27;;;1.17;;
6392;SDS011;3229;42.674;23.282;2023-04-15T09:58:18;1.48;;;1.23;;
6392;SDS011;3229;42.674;23.282;2023-04-15T10:00:47;1.70;;;1.20;;
6392;SDS011;3229;42.674;23.282;2023-04-15T10:03:18;4.45;;;1.42;;
6392;SDS011;3229;42.674;23.282;2023-04-15T10:05:47;2.47;;;1.40;;
6392;SDS011;3229;42.674;23.282;2023-04-15T10:08:16;1.35;;;1.25;;
6392;SDS011;3229;42.674;23.282;2023-04-15T10:10:44;1.30;;;1.23;;
6392;SDS011;3229;42.674;23.282;2023-04-15T10:13:12;1.77;;;1.42;;
6392;SDS011;3229;42.674;23.282;2023-04-15T10:15:41;1.63;;;1.40;;
6392;SDS011;3229;42.674;23.282;2023-04-15T10:18:11;1.70;;;1.40;;
6392;SDS011;3229;42.674;23.282;2023-04-15T10:20:41;1.38;;;1.27;;
6392;SDS011;3229;42.674;23.282;2023-04-15T10:23:09;1.58;;;1.20;;
6392;SDS011;3229;42.674;23.282;2023-04-15T10:25:37;1.50;;;1.40;;
6392;SDS011;3229;42.674;23.282;2023-04-15T10:28:05;1.25;;;1.15;;
6392;SDS011;3229;42.674;23.282;2023-04-15T10:30:32;1.23;;;1.20;;
6392;SDS011;3229;42.674;23.282;2023-04-15T10:32:59;1.67;;;1.25;;
6392;SDS011;3229;42.674;23.282;2023-04-15T10:35:28;1.30;;;1.20;;
6392;SDS011;3229;42.674;23.282;2023-04-15T10:37:57;2.28;;;1.45;;
6392;SDS011;3229;42.674;23.282;2023-04-15T10:40:25;1.92;;;1.45;;
6392;SDS011;3229;42.674;23.282;2023-04-15T10:42:55;1.17;;;1.08;;
6392;SDS011;3229;42.674;23.282;2023-04-15T10:45:24;1.30;;;1.20;;
6392;SDS011;3229;42.674;23.282;2023-04-15T10:47:53;2.30;;;1.33;;
6392;SDS011;3229;42.674;23.282;2023-04-15T10:50:21;4.45;;;1.10;;
6392;SDS011;3229;42.674;23.282;2023-04-15T10:52:50;2.47;;;1.20;;
6392;SDS011;3229;42.674;23.282;2023-04-15T10:55:18;2.42;;;1.30;;
6392;SDS011;3229;42.674;23.282;2023-04-15T10:57:48;1.33;;;1.10;;
6392;SDS011;3229;42.674;23.282;2023-04-15T11:00:18;1.83;;;1.45;;
6392;SDS011;3229;42.674;23.282;2023-04-15T11:02:47;2.58;;;1.15;;
6392;SDS011;3229;42.674;23.282;2023-04-15T11:05:17;2.10;;;1.60;;
6392;SDS011;3229;42.674;23.282;2023-04-15T11:13:21;2.05;;;1.50;;
6392;SDS011;3229;42.674;23.282;2023-04-15T11:15:56;3.78;;;1.40;;
6392;SDS011;3229;42.674;23.282;2023-04-15T11:18:25;1.42;;;1.33;;
6392;SDS011;3229;42.674;23.282;2023-04-15T11:20:55;2.05;;;1.40;;
6392;SDS011;3229;42.674;23.282;2023-04-15T11:23:28;1.90;;;1.38;;
6392;SDS011;3229;42.674;23.282;2023-04-15T11:25:57;1.23;;;1.23;;
6392;SDS011;3229;42.674;23.282;2023-04-15T11:28:25;1.52;;;1.40;;
6392;SDS011;3229;42.674;23.282;2023-04-15T11:30:52;1.33;;;1.23;;
6392;SDS011;3229;42.674;23.282;2023-04-15T11:33:21;1.33;;;1.23;;
6392;SDS011;3229;42.674;23.282;2023-04-15T11:35:49;3.95;;;1.83;;
6392;SDS011;3229;42.674;23.282;2023-04-15T11:38:17;1.90;;;1.42;;
6392;SDS011;3229;42.674;23.282;2023-04-15T11:40:45;1.35;;;1.25;;
6392;SDS011;3229;42.674;23.282;2023-04-15T11:43:13;1.45;;;1.35;;
6392;SDS011;3229;42.674;23.282;2023-04-15T11:45:52;2.55;;;1.30;;
6392;SDS011;3229;42.674;23.282;2023-04-15T11:48:21;1.50;;;1.38;;
6392;SDS011;3229;42.674;23.282;2023-04-15T11:50:52;1.50;;;1.40;;
6392;SDS011;3229;42.674;23.282;2023-04-15T11:53:20;1.90;;;1.10;;
6392;SDS011;3229;42.674;23.282;2023-04-15T11:55:49;2.60;;;1.80;;
6392;SDS011;3229;42.674;23.282;2023-04-15T11:58:19;1.77;;;1.40;;
6392;SDS011;3229;42.674;23.282;2023-04-15T12:00:48;2.92;;;1.25;;
6392;SDS011;3229;42.674;23.282;2023-04-15T12:03:18;3.90;;;1.48;;
6392;SDS011;3229;42.674;23.282;2023-04-15T12:06:02;1.00;;;1.00;;
6392;SDS011;3229;42.674;23.282;2023-04-15T12:11:32;1.60;;;1.08;;
6392;SDS011;3229;42.674;23.282;2023-04-15T12:14:07;2.45;;;1.30;;
6392;SDS011;3229;42.674;23.282;2023-04-15T12:16:38;2.15;;;1.23;;
6392;SDS011;3229;42.674;23.282;2023-04-15T12:19:08;2.38;;;1.20;;
6392;SDS011;3229;42.674;23.282;2023-04-15T12:21:36;1.45;;;1.35;;
6392;SDS011;3229;42.674;23.282;2023-04-15T12:24:05;1.30;;;1.08;;
6392;SDS011;3229;42.674;23.282;2023-04-15T12:26:35;6.15;;;1.50;;
6392;SDS011;3229;42.674;23.282;2023-04-15T12:29:04;3.80;;;1.48;;
6392;SDS011;3229;42.674;23.282;2023-04-15T12:31:32;2.17;;;1.42;;
6392;SDS011;3229;42.674;23.282;2023-04-15T12:33:59;1.20;;;1.10;;
6392;SDS011;3229;42.674;23.282;2023-04-15T12:36:27;2.25;;;1.45;;
6392;SDS011;3229;42.674;23.282;2023-04-15T12:38:57;1.92;;;1.20;;
6392;SDS011;3229;42.674;23.282;2023-04-15T12:41:24;1.90;;;1.58;;
6392;SDS011;3229;42.674;23.282;2023-04-15T12:43:52;1.40;;;1.30;;
6392;SDS011;3229;42.674;23.282;2023-04-15T12:46:19;1.73;;;1.35;;
6392;SDS011;3229;42.674;23.282;2023-04-15T12:48:46;1.10;;;1.10;;
6392;SDS011;3229;42.674;23.282;2023-04-15T12:51:12;1.45;;;1.30;;
6392;SDS011;3229;42.674;23.282;2023-04-15T12:53:39;1.73;;;1.40;;
6392;SDS011;3229;42.674;23.282;2023-04-15T12:56:06;2.60;;;1.40;;
6392;SDS011;3229;42.674;23.282;2023-04-15T12:58:33;2.83;;;1.63;;
6392;SDS011;3229;42.674;23.282;2023-04-15T13:01:01;1.75;;;1.30;;
6392;SDS011;3229;42.674;23.282;2023-04-15T13:03:28;1.95;;;1.42;;
6392;SDS011;3229;42.674;23.282;2023-04-15T13:05:55;2.15;;;1.40;;
6392;SDS011;3229;42.674;23.282;2023-04-15T13:08:22;2.20;;;1.33;;
6392;SDS011;3229;42.674;23.282;2023-04-15T13:10:49;2.22;;;1.63;;
6392;SDS011;3229;42.674;23.282;2023-04-15T13:13:16;2.00;;;1.45;;
6392;SDS011;3229;42.674;23.282;2023-04-15T13:15:43;1.40;;;1.30;;
6392;SDS011;3229;42.674;23.282;2023-04-15T13:18:11;1.42;;;1.17;;
6392;SDS011;3229;42.674;23.282;2023-04-15T13:20:38;1.30;;;1.20;;
6392;SDS011;3229;42.674;23.282;2023-04-15T13:23:05;1.33;;;1.23;;
6392;SDS011;3229;42.674;23.282;2023-04-15T13:25:32;2.88;;;1.50;;
6392;SDS011;3229;42.674;23.282;2023-04-15T13:27:59;2.28;;;1.50;;
6392;SDS011;3229;42.674;23.282;2023-04-15T13:30:26;1.30;;;1.20;;
6392;SDS011;3229;42.674;23.282;2023-04-15T13:32:53;1.33;;;1.20;;
6392;SDS011;3229;42.674;23.282;2023-04-15T13:35:21;1.38;;;1.30;;
6392;SDS011;3229;42.674;23.282;2023-04-15T13:37:48;1.33;;;1.25;;
6392;SDS011;3229;42.674;23.282;2023-04-15T13:40:15;1.10;;;1.00;;
6392;SDS011;3229;42.674;23.282;2023-04-15T13:42:42;1.10;;;1.10;;
6392;SDS011;3229;42.674;23.282;2023-04-15T13:45:09;2.00;;;1.40;;
6392;SDS011;3229;42.674;23.282;2023-04-15T13:47:36;1.23;;;1.15;;
6392;SDS011;3229;42.674;23.282;2023-04-15T13:50:03;1.80;;;1.63;;
6392;SDS011;3229;42.674;23.282;2023-04-15T13:52:32;1.52;;;1.30;;
6392;SDS011;3229;42.674;23.282;2023-04-15T13:54:59;2.60;;;1.33;;
6392;SDS011;3229;42.674;23.282;2023-04-15T13:57:26;1.35;;;1.27;;
6392;SDS011;3229;42.674;23.282;2023-04-15T13:59:52;1.60;;;1.50;;
6392;SDS011;3229;42.674;23.282;2023-04-15T14:02:20;1.42;;;1.17;;
6392;SDS011;3229;42.674;23.282;2023-04-15T14:04:48;1.95;;;1.35;;
6392;SDS011;3229;42.674;23.282;2023-04-15T14:07:14;1.33;;;1.08;;
6392;SDS011;3229;42.674;23.282;2023-04-15T14:09:43;1.83;;;1.23;;
6392;SDS011;3229;42.674;23.282;2023-04-15T14:12:10;1.83;;;1.48;;
6392;SDS011;3229;42.674;23.282;2023-04-15T14:14:36;1.05;;;1.00;;
6392;SDS011;3229;42.674;23.282;2023-04-15T14:17:03;1.55;;;1.40;;
6392;SDS011;3229;42.674;23.282;2023-04-15T14:19:30;2.25;;;1.38;;
6392;SDS011;3229;42.674;23.282;2023-04-15T14:21:57;3.35;;;1.30;;
6392;SDS011;3229;42.674;23.282;2023-04-15T14:24:24;1.33;;;1.20;;
6392;SDS011;3229;42.674;23.282;2023-04-15T14:26:52;1.15;;;0.90;;
6392;SDS011;3229;42.674;23.282;2023-04-15T14:29:20;1.50;;;1.35;;
6392;SDS011;3229;42.674;23.282;2023-04-15T14:31:47;1.67;;;1.20;;
6392;SDS011;3229;42.674;23.282;2023-04-15T14:34:15;1.65;;;1.20;;
6392;SDS011;3229;42.674;23.282;2023-04-15T14:36:41;1.30;;;1.20;;
6392;SDS011;3229;42.674;23.282;2023-04-15T14:39:08;1.50;;;1.20;;
6392;SDS011;3229;42.674;23.282;2023-04-15T14:41:35;1.10;;;1.10;;
6392;SDS011;3229;42.674;23.282;2023-04-15T14:44:04;1.58;;;1.42;;
6392;SDS011;3229;42.674;23.282;2023-04-15T14:46:33;2.63;;;1.50;;
6392;SDS011;3229;42.674;23.282;2023-04-15T14:49:00;1.30;;;1.20;;
6392;SDS011;3229;42.674;23.282;2023-04-15T14:51:27;2.17;;;1.17;;
6392;SDS011;3229;42.674;23.282;2023-04-15T14:53:54;1.58;;;1.48;;
6392;SDS011;3229;42.674;23.282;2023-04-15T14:56:20;1.42;;;1.33;;
6392;SDS011;3229;42.674;23.282;2023-04-15T14:58:47;3.70;;;1.42;;
6392;SDS011;3229;42.674;23.282;2023-04-15T15:01:18;1.40;;;1.30;;
6392;SDS011;3229;42.674;23.282;2023-04-15T15:03:45;2.08;;;1.33;;
6392;SDS011;3229;42.674;23.282;2023-04-15T15:06:12;1.40;;;1.30;;
6392;SDS011;3229;42.674;23.282;2023-04-15T15:08:39;2.05;;;1.40;;
6392;SDS011;3229;42.674;23.282;2023-04-15T15:11:06;2.17;;;1.20;;